sensor_id;sensor_type;location;lat;lon;timestamp;pressure;altitude;pressure_sealevel;temperature;humidity
57374;BME280;43964;53.890;25.340;2023-06-14T00:02:12;1025.6;;;15.2;44.1
57374;BME280;43964;53.890;25.340;2023-06-14T00:07:33;1025.6;;;15.1;44.4
57374;BME280;43964;53.890;25.340;2023-06-14T00:12:32;1025.6;;;15.1;44.5
57374;BME280;43964;53.890;25.340;2023-06-14T00:16:56;1025.6;;;15.1;44.5
57374;BME280;43964;53.890;25.340;2023-06-14T00:22:12;1025.5;;;15.1;44.4
57374;BME280;43964;53.890;25.340;2023-06-14T00:26:48;1025.5;;;15.1;44.2
57374;BME280;43964;53.890;25.340;2023-06-14T00:32:28;1025.4;;;15.2;44.2
57374;BME280;43964;53.890;25.340;2023-06-14T00:37:06;1025.4;;;15.3;44.1
57374;BME280;43964;53.890;25.340;2023-06-14T00:42:22;1025.4;;;15.3;44.2
57374;BME280;43964;53.890;25.340;2023-06-14T00:47:24;1025.4;;;15.4;44.4
57374;BME280;43964;53.890;25.340;2023-06-14T00:52:30;1025.4;;;15.5;44.4
57374;BME280;43964;53.890;25.340;2023-06-14T00:56:46;1025.4;;;15.5;44.4
57374;BME280;43964;53.890;25.340;2023-06-14T01:01:48;1025.4;;;15.6;44.4
57374;BME280;43964;53.890;25.340;2023-06-14T01:07:24;1025.4;;;15.6;44.5
57374;BME280;43964;53.890;25.340;2023-06-14T01:12:31;1025.5;;;15.7;44.3
57374;BME280;43964;53.890;25.340;2023-06-14T01:17:04;1025.5;;;15.8;44.2
57374;BME280;43964;53.890;25.340;2023-06-14T01:21:48;1025.5;;;15.8;44.1
57374;BME280;43964;53.890;25.340;2023-06-14T01:27:22;1025.4;;;15.9;43.9
57374;BME280;43964;53.890;25.340;2023-06-14T01:32:22;1025.4;;;16;43.8
57374;BME280;43964;53.890;25.340;2023-06-14T01:37:24;1025.4;;;16.1;43.7
57374;BME280;43964;53.890;25.340;2023-06-14T01:42:02;1025.3;;;16.1;43.7
57374;BME280;43964;53.890;25.340;2023-06-14T01:47:04;1025.3;;;16.1;43.7
57374;BME280;43964;53.890;25.340;2023-06-14T01:52:30;1025.2;;;16;43.7
57374;BME280;43964;53.890;25.340;2023-06-14T01:57:04;1025.2;;;16;43.7
57374;BME280;43964;53.890;25.340;2023-06-14T02:02:20;1025.2;;;16;43.6
57374;BME280;43964;53.890;25.340;2023-06-14T02:07:24;1025.3;;;16.1;43.6
57374;BME280;43964;53.890;25.340;2023-06-14T02:12:30;1025.4;;;16.2;43.5
57374;BME280;43964;53.890;25.340;2023-06-14T02:16:46;1025.4;;;16.2;43.4
57374;BME280;43964;53.890;25.340;2023-06-14T02:22:12;1025.4;;;16.3;43.4
57374;BME280;43964;53.890;25.340;2023-06-14T02:27:24;1025.4;;;16.3;43.4
57374;BME280;43964;53.890;25.340;2023-06-14T02:32:28;1025.3;;;16.2;43.3
57374;BME280;43964;53.890;25.340;2023-06-14T02:36:56;1025.3;;;16.2;43.4
57374;BME280;43964;53.890;25.340;2023-06-14T02:42:12;1025.2;;;16.2;43.4
57374;BME280;43964;53.890;25.340;2023-06-14T02:47:24;1025;;;16.3;43.5
57374;BME280;43964;53.890;25.340;2023-06-14T02:52:30;1025.2;;;16.2;43.7
57374;BME280;43964;53.890;25.340;2023-06-14T02:57:18;1025.2;;;16.2;43.7
57374;BME280;43964;53.890;25.340;2023-06-14T03:02:14;1025.2;;;16.3;43.6
57374;BME280;43964;53.890;25.340;2023-06-14T03:06:58;1025.2;;;16.3;43.7
57374;BME280;43964;53.890;25.340;2023-06-14T03:12:30;1025.1;;;16.3;43.7
57374;BME280;43964;53.890;25.340;2023-06-14T03:16:54;1025.2;;;16.2;43.8
57374;BME280;43964;53.890;25.340;2023-06-14T03:22:04;1025.2;;;16.2;43.8
57374;BME280;43964;53.890;25.340;2023-06-14T03:27:22;1025.3;;;16.2;43.8
57374;BME280;43964;53.890;25.340;2023-06-14T03:32:20;1025.4;;;16.3;43.9
57374;BME280;43964;53.890;25.340;2023-06-14T03:36:54;1025.4;;;16.3;44
57374;BME280;43964;53.890;25.340;2023-06-14T03:42:12;1025.4;;;16.3;44.1
57374;BME280;43964;53.890;25.340;2023-06-14T03:47:24;1025.4;;;16.3;44.1
57374;BME280;43964;53.890;25.340;2023-06-14T03:52:28;1025.5;;;16.3;44.1
57374;BME280;43964;53.890;25.340;2023-06-14T03:56:46;1025.6;;;16.4;44
57374;BME280;43964;53.890;25.340;2023-06-14T04:02:12;1025.6;;;16.5;44
57374;BME280;43964;53.890;25.340;2023-06-14T04:07:24;1025.6;;;16.6;43.9
57374;BME280;43964;53.890;25.340;2023-06-14T04:12:30;1025.6;;;16.6;43.9
57374;BME280;43964;53.890;25.340;2023-06-14T04:16:56;1025.6;;;16.7;43.8
57374;BME280;43964;53.890;25.340;2023-06-14T04:22:14;1025.5;;;16.7;43.8
57374;BME280;43964;53.890;25.340;2023-06-14T04:27:22;1025.5;;;16.8;43.7
57374;BME280;43964;53.890;25.340;2023-06-14T04:32:30;1025.5;;;17;43.6
57374;BME280;43964;53.890;25.340;2023-06-14T04:37:04;1025.5;;;17.1;43.6
57374;BME280;43964;53.890;25.340;2023-06-14T04:42:12;1025.5;;;17.2;43.4
57374;BME280;43964;53.890;25.340;2023-06-14T04:47:24;1025.5;;;17.5;43.1
57374;BME280;43964;53.890;25.340;2023-06-14T04:52:30;1025.5;;;17.8;42.8
57374;BME280;43964;53.890;25.340;2023-06-14T04:56:46;1025.5;;;18.1;42.6
57374;BME280;43964;53.890;25.340;2023-06-14T05:02:12;1025.5;;;18.4;42.2
57374;BME280;43964;53.890;25.340;2023-06-14T05:07:10;1025.5;;;18.6;41.9
57374;BME280;43964;53.890;25.340;2023-06-14T05:12:32;1025.4;;;18.9;41.5
57374;BME280;43964;53.890;25.340;2023-06-14T05:16:46;1025.4;;;19.4;41
57374;BME280;43964;53.890;25.340;2023-06-14T05:22:14;1025.3;;;19.9;40.1
57374;BME280;43964;53.890;25.340;2023-06-14T05:27:14;1025.3;;;20.6;38.9
57374;BME280;43964;53.890;25.340;2023-06-14T05:32:30;1025.3;;;20.8;38.4
57374;BME280;43964;53.890;25.340;2023-06-14T05:36:46;1025.3;;;21;38.1
57374;BME280;43964;53.890;25.340;2023-06-14T05:42:12;1025.4;;;21.5;37
57374;BME280;43964;53.890;25.340;2023-06-14T05:47:24;1025.4;;;21.8;36.2
57374;BME280;43964;53.890;25.340;2023-06-14T05:52:30;1025.5;;;21.2;36.7
57374;BME280;43964;53.890;25.340;2023-06-14T05:56:58;1025.5;;;20.8;37.1
57374;BME280;43964;53.890;25.340;2023-06-14T06:02:14;1025.4;;;20.7;37.3
57374;BME280;43964;53.890;25.340;2023-06-14T06:07:16;1025.4;;;20.7;37.3
57374;BME280;43964;53.890;25.340;2023-06-14T06:12:32;1025.5;;;20.5;37.5
57374;BME280;43964;53.890;25.340;2023-06-14T06:16:54;1025.5;;;20.3;37.6
57374;BME280;43964;53.890;25.340;2023-06-14T06:21:56;1025.5;;;20.1;37.7
57374;BME280;43964;53.890;25.340;2023-06-14T06:27:34;1025.5;;;20;37.9
57374;BME280;43964;53.890;25.340;2023-06-14T06:32:34;1025.5;;;19.9;38
57374;BME280;43964;53.890;25.340;2023-06-14T06:36:46;1025.5;;;19.9;38
57374;BME280;43964;53.890;25.340;2023-06-14T06:42:08;1025.5;;;20;38
57374;BME280;43964;53.890;25.340;2023-06-14T06:47:24;1025.5;;;20.1;38.1
57374;BME280;43964;53.890;25.340;2023-06-14T06:52:32;1025.5;;;20.3;37.8
57374;BME280;43964;53.890;25.340;2023-06-14T06:56:46;1025.4;;;20.8;37.5
57374;BME280;43964;53.890;25.340;2023-06-14T07:02:08;1025.4;;;21.3;37
57374;BME280;43964;53.890;25.340;2023-06-14T07:07:24;1025.4;;;21.9;36.6
57374;BME280;43964;53.890;25.340;2023-06-14T07:12:32;1025.5;;;22.2;36.3
57374;BME280;43964;53.890;25.340;2023-06-14T07:16:46;1025.5;;;22.1;35.7
57374;BME280;43964;53.890;25.340;2023-06-14T07:22:16;1025.5;;;21.9;35.3
57374;BME280;43964;53.890;25.340;2023-06-14T07:27:26;1025.5;;;21.7;35.1
57374;BME280;43964;53.890;25.340;2023-06-14T07:31:46;1025.6;;;21.5;34.9
57374;BME280;43964;53.890;25.340;2023-06-14T07:37:04;1025.6;;;21.2;34.8
57374;BME280;43964;53.890;25.340;2023-06-14T07:42:08;1025.6;;;21.2;35
57374;BME280;43964;53.890;25.340;2023-06-14T07:47:14;1025.6;;;21.3;35.1
57374;BME280;43964;53.890;25.340;2023-06-14T07:52:14;1025.7;;;21.4;35
57374;BME280;43964;53.890;25.340;2023-06-14T07:57:20;1025.7;;;21.4;35
57374;BME280;43964;53.890;25.340;2023-06-14T08:02:06;1025.8;;;21.4;34.9
57374;BME280;43964;53.890;25.340;2023-06-14T08:07:14;1025.8;;;21.5;34.8
57374;BME280;43964;53.890;25.340;2023-06-14T08:12:14;1025.7;;;21.7;34.7
57374;BME280;43964;53.890;25.340;2023-06-14T08:17:08;1025.7;;;21.7;34.7
57374;BME280;43964;53.890;25.340;2023-06-14T08:22:04;1025.8;;;21.7;34.7
57374;BME280;43964;53.890;25.340;2023-06-14T08:27:02;1025.8;;;21.8;34.7
57374;BME280;43964;53.890;25.340;2023-06-14T08:32:12;1025.8;;;22;34.6
57374;BME280;43964;53.890;25.340;2023-06-14T08:36:48;1025.7;;;22.1;34.2
57374;BME280;43964;53.890;25.340;2023-06-14T08:41:54;1025.7;;;22.3;33.7
57374;BME280;43964;53.890;25.340;2023-06-14T08:47:00;1025.6;;;22.5;33.4
57374;BME280;43964;53.890;25.340;2023-06-14T08:51:46;1025.6;;;22.8;33.1
57374;BME280;43964;53.890;25.340;2023-06-14T08:57:18;1025.4;;;23;33
57374;BME280;43964;53.890;25.340;2023-06-14T09:02:08;1025.5;;;23.3;32.9
57374;BME280;43964;53.890;25.340;2023-06-14T09:07:20;1025.5;;;23.3;32.9
57374;BME280;43964;53.890;25.340;2023-06-14T09:12:02;1025.5;;;23.3;32.8
57374;BME280;43964;53.890;25.340;2023-06-14T09:16:51;1025.6;;;23.2;32.8
57374;BME280;43964;53.890;25.340;2023-06-14T09:21:56;1025.5;;;23.1;32.7
57374;BME280;43964;53.890;25.340;2023-06-14T09:26:46;1025.5;;;23.1;32.6
57374;BME280;43964;53.890;25.340;2023-06-14T09:31:58;1025.4;;;23.2;32.5
57374;BME280;43964;53.890;25.340;2023-06-14T09:37:28;1025.4;;;23.4;32.4
57374;BME280;43964;53.890;25.340;2023-06-14T09:42:16;1025.4;;;23.4;32.5
57374;BME280;43964;53.890;25.340;2023-06-14T09:47:15;1025.4;;;23.4;32.4
57374;BME280;43964;53.890;25.340;2023-06-14T09:52:15;1025.4;;;23.1;32.5
57374;BME280;43964;53.890;25.340;2023-06-14T09:57:21;1025.4;;;22.9;32.7
57374;BME280;43964;53.890;25.340;2023-06-14T10:01:46;1025.4;;;22.9;32.7
57374;BME280;43964;53.890;25.340;2023-06-14T10:06:46;1025.4;;;23;32.6
57374;BME280;43964;53.890;25.340;2023-06-14T10:11:46;1025.3;;;23;32.6
57374;BME280;43964;53.890;25.340;2023-06-14T10:17:23;1025.3;;;23.2;32.4
57374;BME280;43964;53.890;25.340;2023-06-14T10:21:58;1025.2;;;23.7;32.1
57374;BME280;43964;53.890;25.340;2023-06-14T10:27:09;1025.1;;;24;31.9
57374;BME280;43964;53.890;25.340;2023-06-14T10:32:02;1025;;;24.4;31.7
57374;BME280;43964;53.890;25.340;2023-06-14T10:37:16;1025;;;24.7;31.5
57374;BME280;43964;53.890;25.340;2023-06-14T10:42:08;1025;;;25;31
57374;BME280;43964;53.890;25.340;2023-06-14T10:46:47;1025.1;;;25.2;30.7
57374;BME280;43964;53.890;25.340;2023-06-14T10:52:15;1025;;;25.1;30.7
57374;BME280;43964;53.890;25.340;2023-06-14T10:57:20;1025;;;25.5;30.7
57374;BME280;43964;53.890;25.340;2023-06-14T11:02:13;1025;;;25.7;30.3
57374;BME280;43964;53.890;25.340;2023-06-14T11:11:46;1025;;;25.7;30.2
57374;BME280;43964;53.890;25.340;2023-06-14T11:16:52;1025;;;25.5;29.7
57374;BME280;43964;53.890;25.340;2023-06-14T11:21:56;1025;;;25.7;29.6
57374;BME280;43964;53.890;25.340;2023-06-14T11:27:14;1025;;;25.7;29.6
57374;BME280;43964;53.890;25.340;2023-06-14T11:32:03;1024.9;;;26;29.6
57374;BME280;43964;53.890;25.340;2023-06-14T11:37:22;1024.8;;;26.3;29.3
57374;BME280;43964;53.890;25.340;2023-06-14T11:41:46;1024.9;;;26;29.2
57374;BME280;43964;53.890;25.340;2023-06-14T11:47:14;1024.9;;;25.8;29.2
57374;BME280;43964;53.890;25.340;2023-06-14T11:51:46;1025;;;25.5;29.5
57374;BME280;43964;53.890;25.340;2023-06-14T11:57:23;1025;;;25.5;29.6
57374;BME280;43964;53.890;25.340;2023-06-14T12:01:47;1025;;;25.2;29.8
57374;BME280;43964;53.890;25.340;2023-06-14T12:07:15;1025;;;25;30.1
57374;BME280;43964;53.890;25.340;2023-06-14T12:12:14;1024.9;;;24.9;30.3
57374;BME280;43964;53.890;25.340;2023-06-14T12:17:22;1025;;;24.9;30.5
57374;BME280;43964;53.890;25.340;2023-06-14T12:22:11;1024.9;;;24.6;30.8
57374;BME280;43964;53.890;25.340;2023-06-14T12:27:03;1024.9;;;24.3;31.1
57374;BME280;43964;53.890;25.340;2023-06-14T12:37:16;1024.9;;;23.7;31.5
57374;BME280;43964;53.890;25.340;2023-06-14T12:42:28;1024.9;;;23.8;31.8
57374;BME280;43964;53.890;25.340;2023-06-14T12:46:46;1024.8;;;23.9;31.9
57374;BME280;43964;53.890;25.340;2023-06-14T12:51:58;1024.7;;;23.9;31.9
57374;BME280;43964;53.890;25.340;2023-06-14T12:56:50;1024.7;;;24.2;31.8
57374;BME280;43964;53.890;25.340;2023-06-14T13:01:56;1024.5;;;24.3;31.7
57374;BME280;43964;53.890;25.340;2023-06-14T13:06:58;1024.5;;;24.6;31.7
57374;BME280;43964;53.890;25.340;2023-06-14T13:11:46;1024.5;;;25.2;31.5
57374;BME280;43964;53.890;25.340;2023-06-14T13:17:06;1024.5;;;25.5;31.3
57374;BME280;43964;53.890;25.340;2023-06-14T13:21:58;1024.5;;;25.8;31.1
57374;BME280;43964;53.890;25.340;2023-06-14T13:27:14;1024.5;;;25.7;31.1
57374;BME280;43964;53.890;25.340;2023-06-14T13:31:46;1024.6;;;25.5;31.3
57374;BME280;43964;53.890;25.340;2023-06-14T13:37:02;1024.5;;;25.4;31.5
57374;BME280;43964;53.890;25.340;2023-06-14T13:42:24;1024.5;;;25.4;31.5
57374;BME280;43964;53.890;25.340;2023-06-14T13:47:02;1024.4;;;25.1;31.7
57374;BME280;43964;53.890;25.340;2023-06-14T13:52:12;1024.3;;;25.1;31.8
57374;BME280;43964;53.890;25.340;2023-06-14T13:56:47;1024.4;;;25.2;31.8
57374;BME280;43964;53.890;25.340;2023-06-14T14:01:58;1024.4;;;25.3;31.8
57374;BME280;43964;53.890;25.340;2023-06-14T14:06:58;1024.4;;;25.3;32.1
57374;BME280;43964;53.890;25.340;2023-06-14T14:11:46;1024.4;;;25.2;32.3
57374;BME280;43964;53.890;25.340;2023-06-14T14:17:02;1024.4;;;25;32.4
57374;BME280;43964;53.890;25.340;2023-06-14T14:21:58;1024.4;;;24.8;32.3
57374;BME280;43964;53.890;25.340;2023-06-14T14:27:36;1024.3;;;24.9;32.3
57374;BME280;43964;53.890;25.340;2023-06-14T14:31:58;1024.3;;;24.8;32.5
57374;BME280;43964;53.890;25.340;2023-06-14T14:37:03;1024.3;;;24.7;32.6
57374;BME280;43964;53.890;25.340;2023-06-14T14:41:46;1024.3;;;24.7;32.9
57374;BME280;43964;53.890;25.340;2023-06-14T14:46:46;1024.2;;;24.5;33
57374;BME280;43964;53.890;25.340;2023-06-14T14:51:58;1024.2;;;24.4;33.2
57374;BME280;43964;53.890;25.340;2023-06-14T14:56:50;1024.1;;;24.3;33.4
57374;BME280;43964;53.890;25.340;2023-06-14T15:02:08;1024.1;;;24.3;33.3
57374;BME280;43964;53.890;25.340;2023-06-14T15:07:34;1024;;;24.5;33.3
57374;BME280;43964;53.890;25.340;2023-06-14T15:11:46;1024;;;24.6;33.3
57374;BME280;43964;53.890;25.340;2023-06-14T15:17:03;1023.9;;;24.8;33.2
57374;BME280;43964;53.890;25.340;2023-06-14T15:22:10;1023.9;;;25.1;33.2
57374;BME280;43964;53.890;25.340;2023-06-14T15:32:26;1024;;;24.7;33.5
57374;BME280;43964;53.890;25.340;2023-06-14T15:37:05;1024;;;24.5;33.8
57374;BME280;43964;53.890;25.340;2023-06-14T15:42:10;1024;;;24.3;33.8
57374;BME280;43964;53.890;25.340;2023-06-14T15:46:47;1024;;;24.3;33.8
57374;BME280;43964;53.890;25.340;2023-06-14T15:51:59;1023.9;;;24.3;34.2
57374;BME280;43964;53.890;25.340;2023-06-14T15:57:04;1023.9;;;24.3;34.3
57374;BME280;43964;53.890;25.340;2023-06-14T16:02:08;1024;;;24.1;34.6
57374;BME280;43964;53.890;25.340;2023-06-14T16:07:14;1024;;;23.9;35
57374;BME280;43964;53.890;25.340;2023-06-14T16:11:47;1024;;;23.9;35.3
57374;BME280;43964;53.890;25.340;2023-06-14T16:17:03;1024;;;23.8;35.8
57374;BME280;43964;53.890;25.340;2023-06-14T16:22:11;1024;;;23.6;36.1
57374;BME280;43964;53.890;25.340;2023-06-14T16:27:15;1024;;;23.6;36.2
57374;BME280;43964;53.890;25.340;2023-06-14T16:32:28;1024;;;23.5;36.8
57374;BME280;43964;53.890;25.340;2023-06-14T16:46:46;1024;;;23.3;37.4
57374;BME280;43964;53.890;25.340;2023-06-14T16:52:03;1024;;;23.2;37.6
57374;BME280;43964;53.890;25.340;2023-06-14T16:57:03;1023.9;;;23.2;38.1
57374;BME280;43964;53.890;25.340;2023-06-14T17:07:21;1024;;;23.2;37.6
57374;BME280;43964;53.890;25.340;2023-06-14T17:11:47;1023.9;;;23.1;38
57374;BME280;43964;53.890;25.340;2023-06-14T17:17:27;1023.8;;;23;38.2
57374;BME280;43964;53.890;25.340;2023-06-14T17:27:15;1023.8;;;22.9;38.6
57374;BME280;43964;53.890;25.340;2023-06-14T17:31:57;1023.8;;;22.8;38.9
57374;BME280;43964;53.890;25.340;2023-06-14T17:37:01;1023.9;;;22.7;39
57374;BME280;43964;53.890;25.340;2023-06-14T17:41:45;1023.9;;;22.6;39.3
57374;BME280;43964;53.890;25.340;2023-06-14T17:47:13;1023.9;;;22.6;39.5
57374;BME280;43964;53.890;25.340;2023-06-14T17:51:45;1023.9;;;22.5;39.5
57374;BME280;43964;53.890;25.340;2023-06-14T17:56:45;1023.9;;;22.4;39.9
57374;BME280;43964;53.890;25.340;2023-06-14T18:02:11;1023.9;;;22.4;40.4
57374;BME280;43964;53.890;25.340;2023-06-14T18:06:59;1023.9;;;22.4;40.2
57374;BME280;43964;53.890;25.340;2023-06-14T18:12:17;1023.8;;;22.2;40.5
57374;BME280;43964;53.890;25.340;2023-06-14T18:17:03;1023.8;;;22;40.5
57374;BME280;43964;53.890;25.340;2023-06-14T18:21:47;1023.9;;;21.9;41.1
57374;BME280;43964;53.890;25.340;2023-06-14T18:27:15;1023.9;;;21.9;41.3
57374;BME280;43964;53.890;25.340;2023-06-14T18:31:47;1023.9;;;21.8;41.4
57374;BME280;43964;53.890;25.340;2023-06-14T18:36:55;1023.9;;;21.7;42.1
57374;BME280;43964;53.890;25.340;2023-06-14T18:41:59;1023.9;;;21.6;42.6
57374;BME280;43964;53.890;25.340;2023-06-14T18:47:15;1024;;;21.6;43
57374;BME280;43964;53.890;25.340;2023-06-14T18:51:47;1024;;;21.6;43
57374;BME280;43964;53.890;25.340;2023-06-14T18:57:07;1024;;;21.6;43
57374;BME280;43964;53.890;25.340;2023-06-14T19:01:47;1024.1;;;21.6;43.1
57374;BME280;43964;53.890;25.340;2023-06-14T19:07:13;1024.1;;;21.6;43.2
57374;BME280;43964;53.890;25.340;2023-06-14T19:11:53;1024;;;21.6;43.4
57374;BME280;43964;53.890;25.340;2023-06-14T19:17:05;1024;;;21.6;43.8
57374;BME280;43964;53.890;25.340;2023-06-14T19:22:11;1024;;;21.6;44
57374;BME280;43964;53.890;25.340;2023-06-14T19:27:13;1024.1;;;21.5;44.1
57374;BME280;43964;53.890;25.340;2023-06-14T19:32:05;1024.1;;;21.5;44.2
57374;BME280;43964;53.890;25.340;2023-06-14T19:36:47;1024.3;;;21.5;44.2
57374;BME280;43964;53.890;25.340;2023-06-14T19:42:11;1024.3;;;21.5;44.2
57374;BME280;43964;53.890;25.340;2023-06-14T19:46:47;1024.2;;;21.4;44.3
57374;BME280;43964;53.890;25.340;2023-06-14T19:51:59;1024.2;;;21.4;44.3
57374;BME280;43964;53.890;25.340;2023-06-14T19:57:05;1024.3;;;21.4;44.4
57374;BME280;43964;53.890;25.340;2023-06-14T20:02:09;1024.3;;;21.4;44.4
57374;BME280;43964;53.890;25.340;2023-06-14T20:07:13;1024.3;;;21.4;44.5
57374;BME280;43964;53.890;25.340;2023-06-14T20:11:59;1024.3;;;21.3;44.8
57374;BME280;43964;53.890;25.340;2023-06-14T20:17:15;1024.4;;;21.3;44.9
57374;BME280;43964;53.890;25.340;2023-06-14T20:22:07;1024.4;;;21.3;45
57374;BME280;43964;53.890;25.340;2023-06-14T20:27:01;1024.4;;;21.3;45.1
57374;BME280;43964;53.890;25.340;2023-06-14T20:31:47;1024.5;;;21.3;45.1
57374;BME280;43964;53.890;25.340;2023-06-14T20:37:05;1024.4;;;21.3;45.1
57374;BME280;43964;53.890;25.340;2023-06-14T20:42:07;1024.4;;;21.2;45.1
57374;BME280;43964;53.890;25.340;2023-06-14T20:47:13;1024.4;;;21.2;45.1
57374;BME280;43964;53.890;25.340;2023-06-14T20:52:05;1024.4;;;21.1;45.1
57374;BME280;43964;53.890;25.340;2023-06-14T20:56:59;1024.4;;;21.1;45.2
57374;BME280;43964;53.890;25.340;2023-06-14T21:02:35;1024.4;;;21.1;45.2
57374;BME280;43964;53.890;25.340;2023-06-14T21:07:35;1024.4;;;21;45.5
57374;BME280;43964;53.890;25.340;2023-06-14T21:11:47;1024.4;;;21;45.7
57374;BME280;43964;53.890;25.340;2023-06-14T21:17:21;1024.4;;;20.9;45.8
57374;BME280;43964;53.890;25.340;2023-06-14T21:22:19;1024.4;;;20.9;45.9
57374;BME280;43964;53.890;25.340;2023-06-14T21:27:13;1024.5;;;20.9;46
57374;BME280;43964;53.890;25.340;2023-06-14T21:31:59;1024.5;;;20.9;46
57374;BME280;43964;53.890;25.340;2023-06-14T21:36:57;1024.5;;;20.8;46
57374;BME280;43964;53.890;25.340;2023-06-14T21:41:47;1024.6;;;20.8;46
57374;BME280;43964;53.890;25.340;2023-06-14T21:47:19;1024.6;;;20.8;46.1
57374;BME280;43964;53.890;25.340;2023-06-14T21:51:57;1024.6;;;20.7;46.2
57374;BME280;43964;53.890;25.340;2023-06-14T21:56:57;1024.6;;;20.7;46.3
57374;BME280;43964;53.890;25.340;2023-06-14T22:02:07;1024.5;;;20.6;46.4
57374;BME280;43964;53.890;25.340;2023-06-14T22:07:19;1024.5;;;20.6;46.6
57374;BME280;43964;53.890;25.340;2023-06-14T22:11:47;1024.5;;;20.6;46.8
57374;BME280;43964;53.890;25.340;2023-06-14T22:17:03;1024.5;;;20.5;46.8
57374;BME280;43964;53.890;25.340;2023-06-14T22:21:57;1024.5;;;20.5;46.9
57374;BME280;43964;53.890;25.340;2023-06-14T22:27:19;1024.4;;;20.5;46.9
57374;BME280;43964;53.890;25.340;2023-06-14T22:31:57;1024.4;;;20.5;46.9
57374;BME280;43964;53.890;25.340;2023-06-14T22:37:03;1024.4;;;20.5;46.8
57374;BME280;43964;53.890;25.340;2023-06-14T22:42:07;1024.4;;;20.4;46.9
57374;BME280;43964;53.890;25.340;2023-06-14T22:47:20;1024.4;;;20.4;46.9
57374;BME280;43964;53.890;25.340;2023-06-14T22:52:03;1024.4;;;20.4;46.9
57374;BME280;43964;53.890;25.340;2023-06-14T22:56:47;1024.4;;;20.3;46.9
57374;BME280;43964;53.890;25.340;2023-06-14T23:01:47;1024.4;;;20.3;47.1
57374;BME280;43964;53.890;25.340;2023-06-14T23:07:13;1024.4;;;20.3;47.2
57374;BME280;43964;53.890;25.340;2023-06-14T23:11:57;1024.3;;;20.3;47.2
57374;BME280;43964;53.890;25.340;2023-06-14T23:17:01;1024.3;;;20.3;47.2
57374;BME280;43964;53.890;25.340;2023-06-14T23:22:09;1024.3;;;20.2;47.3
57374;BME280;43964;53.890;25.340;2023-06-14T23:27:31;1024.3;;;20.2;47.3
57374;BME280;43964;53.890;25.340;2023-06-14T23:31:57;1024.3;;;20.2;47.3
57374;BME280;43964;53.890;25.340;2023-06-14T23:37:17;1024.3;;;20.2;47.2
57374;BME280;43964;53.890;25.340;2023-06-14T23:42:09;1024.3;;;20.2;47.2
57374;BME280;43964;53.890;25.340;2023-06-14T23:47:19;1024.3;;;20.1;47.3
57374;BME280;43964;53.890;25.340;2023-06-14T23:51:57;1024.3;;;20.1;47.3
57374;BME280;43964;53.890;25.340;2023-06-14T23:57:19;1024.2;;;20;47.5
